sensor_id;sensor_type;location;lat;lon;timestamp;temperature;humidity
26342;DHT22;14054;50.108;8.640;2024-02-21T00:01:40;8.50;99.90
26342;DHT22;14054;50.108;8.640;2024-02-21T00:04:05;8.40;99.90
26342;DHT22;14054;50.108;8.640;2024-02-21T00:06:31;8.30;99.90
26342;DHT22;14054;50.108;8.640;2024-02-21T00:08:57;8.30;99.90
26342;DHT22;14054;50.108;8.640;2024-02-21T00:11:23;8.30;99.90
26342;DHT22;14054;50.108;8.640;2024-02-21T00:13:48;8.30;99.90
26342;DHT22;14054;50.108;8.640;2024-02-21T00:16:15;8.30;99.90
26342;DHT22;14054;50.108;8.640;2024-02-21T00:18:41;8.30;99.90
26342;DHT22;14054;50.108;8.640;2024-02-21T00:21:06;8.30;99.90
26342;DHT22;14054;50.108;8.640;2024-02-21T00:23:32;8.20;99.90
26342;DHT22;14054;50.108;8.640;2024-02-21T00:25:57;8.20;99.90
26342;DHT22;14054;50.108;8.640;2024-02-21T00:28:23;8.20;99.90
26342;DHT22;14054;50.108;8.640;2024-02-21T00:30:48;8.20;99.90
26342;DHT22;14054;50.108;8.640;2024-02-21T00:33:16;8.20;99.90
26342;DHT22;14054;50.108;8.640;2024-02-21T00:35:42;8.10;99.90
26342;DHT22;14054;50.108;8.640;2024-02-21T00:38:07;8.10;99.90
26342;DHT22;14054;50.108;8.640;2024-02-21T00:40:33;8.10;99.90
26342;DHT22;14054;50.108;8.640;2024-02-21T00:42:59;8.10;99.90
26342;DHT22;14054;50.108;8.640;2024-02-21T00:45:24;8.10;99.90
26342;DHT22;14054;50.108;8.640;2024-02-21T00:47:49;8.10;99.90
26342;DHT22;14054;50.108;8.640;2024-02-21T00:50:15;8.10;99.90
26342;DHT22;14054;50.108;8.640;2024-02-21T00:52:40;8.10;99.90
26342;DHT22;14054;50.108;8.640;2024-02-21T00:55:06;8.10;99.90
26342;DHT22;14054;50.108;8.640;2024-02-21T00:57:32;8.10;99.90
26342;DHT22;14054;50.108;8.640;2024-02-21T00:59:57;8.00;99.90
26342;DHT22;14054;50.108;8.640;2024-02-21T01:02:23;8.00;99.90
26342;DHT22;14054;50.108;8.640;2024-02-21T01:04:48;8.00;99.90
26342;DHT22;14054;50.108;8.640;2024-02-21T01:07:14;8.00;99.90
26342;DHT22;14054;50.108;8.640;2024-02-21T01:09:39;8.00;99.90
26342;DHT22;14054;50.108;8.640;2024-02-21T01:12:05;8.00;99.90
26342;DHT22;14054;50.108;8.640;2024-02-21T01:14:31;8.10;99.90
26342;DHT22;14054;50.108;8.640;2024-02-21T01:16:56;8.00;99.90
26342;DHT22;14054;50.108;8.640;2024-02-21T01:19:22;8.10;99.90
26342;DHT22;14054;50.108;8.640;2024-02-21T01:21:47;8.00;99.90
26342;DHT22;14054;50.108;8.640;2024-02-21T01:24:13;8.10;99.90
26342;DHT22;14054;50.108;8.640;2024-02-21T01:26:40;8.10;99.90
26342;DHT22;14054;50.108;8.640;2024-02-21T01:29:05;8.10;99.90
26342;DHT22;14054;50.108;8.640;2024-02-21T01:31:31;8.10;99.90
26342;DHT22;14054;50.108;8.640;2024-02-21T01:33:56;8.10;99.90
26342;DHT22;14054;50.108;8.640;2024-02-21T01:36:22;8.10;99.90
26342;DHT22;14054;50.108;8.640;2024-02-21T01:38:47;8.10;99.90
26342;DHT22;14054;50.108;8.640;2024-02-21T01:41:12;8.10;99.90
26342;DHT22;14054;50.108;8.640;2024-02-21T01:43:38;8.00;99.90
26342;DHT22;14054;50.108;8.640;2024-02-21T01:46:03;8.00;99.90
26342;DHT22;14054;50.108;8.640;2024-02-21T01:48:29;8.00;99.90
26342;DHT22;14054;50.108;8.640;2024-02-21T01:50:56;7.90;99.90
26342;DHT22;14054;50.108;8.640;2024-02-21T01:53:27;7.90;99.90
26342;DHT22;14054;50.108;8.640;2024-02-21T01:55:54;7.90;99.90
26342;DHT22;14054;50.108;8.640;2024-02-21T01:58:20;7.90;99.90
26342;DHT22;14054;50.108;8.640;2024-02-21T02:00:47;7.90;99.90
26342;DHT22;14054;50.108;8.640;2024-02-21T02:03:13;7.90;99.90
26342;DHT22;14054;50.108;8.640;2024-02-21T02:05:49;7.90;99.90
26342;DHT22;14054;50.108;8.640;2024-02-21T02:08:19;7.90;99.90
26342;DHT22;14054;50.108;8.640;2024-02-21T02:10:47;7.90;99.90
26342;DHT22;14054;50.108;8.640;2024-02-21T02:13:13;7.90;99.90
26342;DHT22;14054;50.108;8.640;2024-02-21T02:15:43;7.90;99.90
26342;DHT22;14054;50.108;8.640;2024-02-21T02:18:09;7.90;99.90
26342;DHT22;14054;50.108;8.640;2024-02-21T02:20:35;7.80;99.90
26342;DHT22;14054;50.108;8.640;2024-02-21T02:23:10;7.90;99.90
26342;DHT22;14054;50.108;8.640;2024-02-21T02:25:37;7.80;99.90
26342;DHT22;14054;50.108;8.640;2024-02-21T02:28:06;7.90;99.90
26342;DHT22;14054;50.108;8.640;2024-02-21T02:30:35;7.90;99.90
26342;DHT22;14054;50.108;8.640;2024-02-21T02:33:04;7.90;99.90
26342;DHT22;14054;50.108;8.640;2024-02-21T02:35:30;7.90;99.90
26342;DHT22;14054;50.108;8.640;2024-02-21T02:37:56;7.90;99.90
26342;DHT22;14054;50.108;8.640;2024-02-21T02:40:21;7.90;99.90
26342;DHT22;14054;50.108;8.640;2024-02-21T02:42:47;7.90;99.90
26342;DHT22;14054;50.108;8.640;2024-02-21T02:45:17;7.90;99.90
26342;DHT22;14054;50.108;8.640;2024-02-21T02:47:44;7.90;99.90
26342;DHT22;14054;50.108;8.640;2024-02-21T02:50:11;7.90;99.90
26342;DHT22;14054;50.108;8.640;2024-02-21T02:52:36;7.90;99.90
26342;DHT22;14054;50.108;8.640;2024-02-21T02:55:02;7.90;99.90
26342;DHT22;14054;50.108;8.640;2024-02-21T02:57:28;7.90;99.90
26342;DHT22;14054;50.108;8.640;2024-02-21T02:59:53;7.90;99.90
26342;DHT22;14054;50.108;8.640;2024-02-21T03:02:19;7.80;99.90
26342;DHT22;14054;50.108;8.640;2024-02-21T03:04:44;7.80;99.90
26342;DHT22;14054;50.108;8.640;2024-02-21T03:07:10;7.80;99.90
26342;DHT22;14054;50.108;8.640;2024-02-21T03:09:37;7.90;99.90
26342;DHT22;14054;50.108;8.640;2024-02-21T03:12:03;7.90;99.90
26342;DHT22;14054;50.108;8.640;2024-02-21T03:14:29;7.90;99.90
26342;DHT22;14054;50.108;8.640;2024-02-21T03:16:54;7.90;99.90
26342;DHT22;14054;50.108;8.640;2024-02-21T03:19:20;7.90;99.90
26342;DHT22;14054;50.108;8.640;2024-02-21T03:21:45;7.90;99.90
26342;DHT22;14054;50.108;8.640;2024-02-21T03:24:11;7.90;99.90
26342;DHT22;14054;50.108;8.640;2024-02-21T03:26:36;7.90;99.90
26342;DHT22;14054;50.108;8.640;2024-02-21T03:29:03;8.00;99.90
26342;DHT22;14054;50.108;8.640;2024-02-21T03:31:28;8.00;99.90
26342;DHT22;14054;50.108;8.640;2024-02-21T03:33:54;7.90;99.90
26342;DHT22;14054;50.108;8.640;2024-02-21T03:36:19;8.00;99.90
26342;DHT22;14054;50.108;8.640;2024-02-21T03:38:45;8.00;99.90
26342;DHT22;14054;50.108;8.640;2024-02-21T03:41:10;8.00;99.90
26342;DHT22;14054;50.108;8.640;2024-02-21T03:43:38;8.00;99.90
26342;DHT22;14054;50.108;8.640;2024-02-21T03:46:04;7.90;99.90
26342;DHT22;14054;50.108;8.640;2024-02-21T03:48:29;8.00;99.90
26342;DHT22;14054;50.108;8.640;2024-02-21T03:50:55;8.00;99.90
26342;DHT22;14054;50.108;8.640;2024-02-21T03:53:20;7.90;99.90
26342;DHT22;14054;50.108;8.640;2024-02-21T03:55:46;7.90;99.90
26342;DHT22;14054;50.108;8.640;2024-02-21T03:58:11;7.90;99.90
26342;DHT22;14054;50.108;8.640;2024-02-21T04:00:36;7.90;99.90
26342;DHT22;14054;50.108;8.640;2024-02-21T04:03:02;7.90;99.90
26342;DHT22;14054;50.108;8.640;2024-02-21T04:05:28;7.90;99.90
26342;DHT22;14054;50.108;8.640;2024-02-21T04:07:53;7.80;99.90
26342;DHT22;14054;50.108;8.640;2024-02-21T04:10:19;7.80;99.90
26342;DHT22;14054;50.108;8.640;2024-02-21T04:12:44;7.80;99.90
26342;DHT22;14054;50.108;8.640;2024-02-21T04:15:10;7.80;99.90
26342;DHT22;14054;50.108;8.640;2024-02-21T04:17:36;7.80;99.90
26342;DHT22;14054;50.108;8.640;2024-02-21T04:20:03;7.80;99.90
26342;DHT22;14054;50.108;8.640;2024-02-21T04:22:33;7.80;99.90
26342;DHT22;14054;50.108;8.640;2024-02-21T04:25:00;7.80;99.90
26342;DHT22;14054;50.108;8.640;2024-02-21T04:27:26;7.80;99.90
26342;DHT22;14054;50.108;8.640;2024-02-21T04:29:52;7.80;99.90
26342;DHT22;14054;50.108;8.640;2024-02-21T04:32:18;7.70;99.90
26342;DHT22;14054;50.108;8.640;2024-02-21T04:34:44;7.70;99.90
26342;DHT22;14054;50.108;8.640;2024-02-21T04:37:09;7.70;99.90
26342;DHT22;14054;50.108;8.640;2024-02-21T04:39:35;7.70;99.90
26342;DHT22;14054;50.108;8.640;2024-02-21T04:42:01;7.70;99.90
26342;DHT22;14054;50.108;8.640;2024-02-21T04:44:26;7.60;99.90
26342;DHT22;14054;50.108;8.640;2024-02-21T04:46:52;7.60;99.90
26342;DHT22;14054;50.108;8.640;2024-02-21T04:49:17;7.50;99.90
26342;DHT22;14054;50.108;8.640;2024-02-21T04:51:43;7.50;99.90
26342;DHT22;14054;50.108;8.640;2024-02-21T04:54:08;7.50;99.90
26342;DHT22;14054;50.108;8.640;2024-02-21T04:56:34;7.50;99.90
26342;DHT22;14054;50.108;8.640;2024-02-21T04:59:00;7.40;99.90
26342;DHT22;14054;50.108;8.640;2024-02-21T05:01:25;7.40;99.90
26342;DHT22;14054;50.108;8.640;2024-02-21T05:03:50;7.40;99.90
26342;DHT22;14054;50.108;8.640;2024-02-21T05:06:16;7.40;99.90
26342;DHT22;14054;50.108;8.640;2024-02-21T05:08:42;7.30;99.90
26342;DHT22;14054;50.108;8.640;2024-02-21T05:11:07;7.30;99.90
26342;DHT22;14054;50.108;8.640;2024-02-21T05:13:33;7.30;99.90
26342;DHT22;14054;50.108;8.640;2024-02-21T05:15:58;7.30;99.90
26342;DHT22;14054;50.108;8.640;2024-02-21T05:18:27;7.20;99.90
26342;DHT22;14054;50.108;8.640;2024-02-21T05:20:53;7.20;99.90
26342;DHT22;14054;50.108;8.640;2024-02-21T05:23:18;7.30;99.90
26342;DHT22;14054;50.108;8.640;2024-02-21T05:25:44;7.20;99.90
26342;DHT22;14054;50.108;8.640;2024-02-21T05:28:09;7.20;99.90
26342;DHT22;14054;50.108;8.640;2024-02-21T05:30:35;7.20;99.90
26342;DHT22;14054;50.108;8.640;2024-02-21T05:33:06;7.20;99.90
26342;DHT22;14054;50.108;8.640;2024-02-21T05:35:33;7.20;99.90
26342;DHT22;14054;50.108;8.640;2024-02-21T05:37:59;7.20;99.90
26342;DHT22;14054;50.108;8.640;2024-02-21T05:40:25;7.20;99.90
26342;DHT22;14054;50.108;8.640;2024-02-21T05:42:50;7.20;99.90
26342;DHT22;14054;50.108;8.640;2024-02-21T05:45:17;7.30;99.90
26342;DHT22;14054;50.108;8.640;2024-02-21T05:47:43;7.30;99.90
26342;DHT22;14054;50.108;8.640;2024-02-21T05:50:09;7.30;99.90
26342;DHT22;14054;50.108;8.640;2024-02-21T05:52:35;7.30;99.90
26342;DHT22;14054;50.108;8.640;2024-02-21T05:55:00;7.30;99.90
26342;DHT22;14054;50.108;8.640;2024-02-21T05:57:26;7.30;99.90
26342;DHT22;14054;50.108;8.640;2024-02-21T05:59:51;7.30;99.90
26342;DHT22;14054;50.108;8.640;2024-02-21T06:02:17;7.40;99.90
26342;DHT22;14054;50.108;8.640;2024-02-21T06:04:42;7.40;99.90
26342;DHT22;14054;50.108;8.640;2024-02-21T06:07:08;7.40;99.90
26342;DHT22;14054;50.108;8.640;2024-02-21T06:09:34;7.40;99.90
26342;DHT22;14054;50.108;8.640;2024-02-21T06:11:59;7.40;99.90
26342;DHT22;14054;50.108;8.640;2024-02-21T06:14:25;7.40;99.90
26342;DHT22;14054;50.108;8.640;2024-02-21T06:16:50;7.40;99.90
26342;DHT22;14054;50.108;8.640;2024-02-21T06:19:16;7.40;99.90
26342;DHT22;14054;50.108;8.640;2024-02-21T06:21:41;7.40;99.90
26342;DHT22;14054;50.108;8.640;2024-02-21T06:24:07;7.40;99.90
26342;DHT22;14054;50.108;8.640;2024-02-21T06:26:32;7.40;99.90
26342;DHT22;14054;50.108;8.640;2024-02-21T06:28:58;7.40;99.90
26342;DHT22;14054;50.108;8.640;2024-02-21T06:31:25;7.40;99.90
26342;DHT22;14054;50.108;8.640;2024-02-21T06:33:50;7.40;99.90
26342;DHT22;14054;50.108;8.640;2024-02-21T06:36:16;7.40;99.90
26342;DHT22;14054;50.108;8.640;2024-02-21T06:38:42;7.40;99.90
26342;DHT22;14054;50.108;8.640;2024-02-21T06:41:15;7.40;99.90
26342;DHT22;14054;50.108;8.640;2024-02-21T06:43:40;7.30;99.90
26342;DHT22;14054;50.108;8.640;2024-02-21T06:46:06;7.40;99.90
26342;DHT22;14054;50.108;8.640;2024-02-21T06:48:32;7.40;99.90
26342;DHT22;14054;50.108;8.640;2024-02-21T06:50:58;7.30;99.90
26342;DHT22;14054;50.108;8.640;2024-02-21T06:53:23;7.40;99.90
26342;DHT22;14054;50.108;8.640;2024-02-21T06:55:49;7.40;99.90
26342;DHT22;14054;50.108;8.640;2024-02-21T06:58:14;7.40;99.90
26342;DHT22;14054;50.108;8.640;2024-02-21T07:00:42;7.50;99.90
26342;DHT22;14054;50.108;8.640;2024-02-21T07:03:08;7.50;99.90
26342;DHT22;14054;50.108;8.640;2024-02-21T07:05:33;7.50;99.90
26342;DHT22;14054;50.108;8.640;2024-02-21T07:07:59;7.60;99.90
26342;DHT22;14054;50.108;8.640;2024-02-21T07:10:25;7.80;99.90
26342;DHT22;14054;50.108;8.640;2024-02-21T07:12:50;8.30;99.90
26342;DHT22;14054;50.108;8.640;2024-02-21T07:15:17;8.20;99.90
26342;DHT22;14054;50.108;8.640;2024-02-21T07:17:42;8.10;99.90
26342;DHT22;14054;50.108;8.640;2024-02-21T07:20:08;8.00;99.90
26342;DHT22;14054;50.108;8.640;2024-02-21T07:22:34;8.00;99.90
26342;DHT22;14054;50.108;8.640;2024-02-21T07:24:59;8.10;99.90
26342;DHT22;14054;50.108;8.640;2024-02-21T07:27:25;8.10;99.90
26342;DHT22;14054;50.108;8.640;2024-02-21T07:29:53;8.20;99.90
26342;DHT22;14054;50.108;8.640;2024-02-21T07:32:19;8.40;99.90
26342;DHT22;14054;50.108;8.640;2024-02-21T07:34:44;8.40;99.90
26342;DHT22;14054;50.108;8.640;2024-02-21T07:37:10;8.50;99.90
26342;DHT22;14054;50.108;8.640;2024-02-21T07:39:36;8.60;99.90
26342;DHT22;14054;50.108;8.640;2024-02-21T07:42:02;8.70;99.90
26342;DHT22;14054;50.108;8.640;2024-02-21T07:44:28;8.70;99.90
26342;DHT22;14054;50.108;8.640;2024-02-21T07:46:53;8.60;99.90
26342;DHT22;14054;50.108;8.640;2024-02-21T07:49:19;8.70;99.90
26342;DHT22;14054;50.108;8.640;2024-02-21T07:51:44;8.90;99.90
26342;DHT22;14054;50.108;8.640;2024-02-21T07:54:10;9.20;99.90
26342;DHT22;14054;50.108;8.640;2024-02-21T07:56:35;9.10;99.90
26342;DHT22;14054;50.108;8.640;2024-02-21T07:59:01;9.10;99.90
26342;DHT22;14054;50.108;8.640;2024-02-21T08:01:26;9.10;99.90
26342;DHT22;14054;50.108;8.640;2024-02-21T08:03:52;9.00;99.90
26342;DHT22;14054;50.108;8.640;2024-02-21T08:06:17;9.00;99.90
26342;DHT22;14054;50.108;8.640;2024-02-21T08:08:43;8.90;99.90
26342;DHT22;14054;50.108;8.640;2024-02-21T08:11:08;8.80;99.90
26342;DHT22;14054;50.108;8.640;2024-02-21T08:13:34;8.90;99.90
26342;DHT22;14054;50.108;8.640;2024-02-21T08:16:00;8.90;99.90
26342;DHT22;14054;50.108;8.640;2024-02-21T08:18:25;8.90;99.90
26342;DHT22;14054;50.108;8.640;2024-02-21T08:20:51;8.90;99.90
26342;DHT22;14054;50.108;8.640;2024-02-21T08:23:18;9.00;99.90
26342;DHT22;14054;50.108;8.640;2024-02-21T08:25:44;8.90;99.90
26342;DHT22;14054;50.108;8.640;2024-02-21T08:28:10;9.00;99.90
26342;DHT22;14054;50.108;8.640;2024-02-21T08:30:35;8.90;99.90
26342;DHT22;14054;50.108;8.640;2024-02-21T08:33:00;8.80;99.90
26342;DHT22;14054;50.108;8.640;2024-02-21T08:35:26;8.80;99.90
26342;DHT22;14054;50.108;8.640;2024-02-21T08:37:51;8.80;99.90
26342;DHT22;14054;50.108;8.640;2024-02-21T08:40:18;8.80;99.90
26342;DHT22;14054;50.108;8.640;2024-02-21T08:42:46;8.80;99.90
26342;DHT22;14054;50.108;8.640;2024-02-21T08:45:11;8.80;99.90
26342;DHT22;14054;50.108;8.640;2024-02-21T08:47:39;8.80;99.90
26342;DHT22;14054;50.108;8.640;2024-02-21T08:50:06;8.90;99.90
26342;DHT22;14054;50.108;8.640;2024-02-21T08:52:31;8.90;99.90
26342;DHT22;14054;50.108;8.640;2024-02-21T08:54:57;8.90;99.90
26342;DHT22;14054;50.108;8.640;2024-02-21T08:57:23;8.90;99.90
26342;DHT22;14054;50.108;8.640;2024-02-21T08:59:48;8.90;99.90
26342;DHT22;14054;50.108;8.640;2024-02-21T09:02:14;9.10;99.90
26342;DHT22;14054;50.108;8.640;2024-02-21T09:04:41;9.00;99.90
26342;DHT22;14054;50.108;8.640;2024-02-21T09:07:07;9.00;99.90
26342;DHT22;14054;50.108;8.640;2024-02-21T09:09:32;9.00;99.90
26342;DHT22;14054;50.108;8.640;2024-02-21T09:11:58;9.10;99.90
26342;DHT22;14054;50.108;8.640;2024-02-21T09:14:31;9.20;99.90
26342;DHT22;14054;50.108;8.640;2024-02-21T09:16:56;9.20;99.90
26342;DHT22;14054;50.108;8.640;2024-02-21T09:19:22;9.30;99.90
26342;DHT22;14054;50.108;8.640;2024-02-21T09:21:47;9.40;99.90
26342;DHT22;14054;50.108;8.640;2024-02-21T09:24:13;9.30;99.90
26342;DHT22;14054;50.108;8.640;2024-02-21T09:26:38;9.30;99.90
26342;DHT22;14054;50.108;8.640;2024-02-21T09:29:04;9.40;99.90
26342;DHT22;14054;50.108;8.640;2024-02-21T09:31:29;9.50;99.90
26342;DHT22;14054;50.108;8.640;2024-02-21T09:33:55;9.40;99.90
26342;DHT22;14054;50.108;8.640;2024-02-21T09:36:20;9.40;99.90
26342;DHT22;14054;50.108;8.640;2024-02-21T09:38:46;9.50;99.90
26342;DHT22;14054;50.108;8.640;2024-02-21T09:41:17;9.50;99.90
26342;DHT22;14054;50.108;8.640;2024-02-21T09:43:43;9.70;99.90
26342;DHT22;14054;50.108;8.640;2024-02-21T09:46:15;9.70;99.90
26342;DHT22;14054;50.108;8.640;2024-02-21T09:48:49;9.90;99.90
26342;DHT22;14054;50.108;8.640;2024-02-21T09:51:19;10.00;99.90
26342;DHT22;14054;50.108;8.640;2024-02-21T09:53:47;10.10;99.90
26342;DHT22;14054;50.108;8.640;2024-02-21T09:56:13;10.30;99.90
26342;DHT22;14054;50.108;8.640;2024-02-21T09:58:39;10.30;99.90
26342;DHT22;14054;50.108;8.640;2024-02-21T10:01:06;10.30;99.90
26342;DHT22;14054;50.108;8.640;2024-02-21T10:03:32;10.20;99.90
26342;DHT22;14054;50.108;8.640;2024-02-21T10:06:01;10.20;99.90
26342;DHT22;14054;50.108;8.640;2024-02-21T10:08:26;10.40;99.90
26342;DHT22;14054;50.108;8.640;2024-02-21T10:10:52;10.40;99.90
26342;DHT22;14054;50.108;8.640;2024-02-21T10:13:28;10.50;99.90
26342;DHT22;14054;50.108;8.640;2024-02-21T10:16:06;10.50;99.90
26342;DHT22;14054;50.108;8.640;2024-02-21T10:18:32;10.50;99.90
26342;DHT22;14054;50.108;8.640;2024-02-21T10:21:08;10.30;99.90
26342;DHT22;14054;50.108;8.640;2024-02-21T10:23:44;10.10;99.90
26342;DHT22;14054;50.108;8.640;2024-02-21T10:26:10;10.10;99.90
26342;DHT22;14054;50.108;8.640;2024-02-21T10:28:37;10.20;99.90
26342;DHT22;14054;50.108;8.640;2024-02-21T10:31:07;10.40;99.90
26342;DHT22;14054;50.108;8.640;2024-02-21T10:33:33;10.60;99.90
26342;DHT22;14054;50.108;8.640;2024-02-21T10:36:11;10.70;99.90
26342;DHT22;14054;50.108;8.640;2024-02-21T10:38:37;10.60;99.90
26342;DHT22;14054;50.108;8.640;2024-02-21T10:41:05;10.40;99.90
26342;DHT22;14054;50.108;8.640;2024-02-21T10:43:38;10.30;99.90
26342;DHT22;14054;50.108;8.640;2024-02-21T10:46:06;10.30;99.90
26342;DHT22;14054;50.108;8.640;2024-02-21T10:48:41;10.30;99.90
26342;DHT22;14054;50.108;8.640;2024-02-21T10:51:14;10.50;99.90
26342;DHT22;14054;50.108;8.640;2024-02-21T10:58:50;10.70;99.90
26342;DHT22;14054;50.108;8.640;2024-02-21T11:01:18;10.70;99.90
26342;DHT22;14054;50.108;8.640;2024-02-21T11:03:46;10.90;99.90
26342;DHT22;14054;50.108;8.640;2024-02-21T11:06:12;10.90;99.90
26342;DHT22;14054;50.108;8.640;2024-02-21T11:08:39;10.90;99.90
26342;DHT22;14054;50.108;8.640;2024-02-21T11:11:05;11.00;99.90
26342;DHT22;14054;50.108;8.640;2024-02-21T11:13:31;11.10;99.90
26342;DHT22;14054;50.108;8.640;2024-02-21T11:16:10;11.40;99.90
26342;DHT22;14054;50.108;8.640;2024-02-21T11:18:39;11.20;99.90
26342;DHT22;14054;50.108;8.640;2024-02-21T11:21:04;11.20;99.90
26342;DHT22;14054;50.108;8.640;2024-02-21T11:23:30;11.20;99.90
26342;DHT22;14054;50.108;8.640;2024-02-21T11:26:10;11.10;99.90
26342;DHT22;14054;50.108;8.640;2024-02-21T11:28:36;11.30;99.90
26342;DHT22;14054;50.108;8.640;2024-02-21T11:31:10;11.40;99.90
26342;DHT22;14054;50.108;8.640;2024-02-21T11:33:39;11.50;99.90
26342;DHT22;14054;50.108;8.640;2024-02-21T11:36:06;11.80;99.90
26342;DHT22;14054;50.108;8.640;2024-02-21T11:38:31;12.30;99.90
26342;DHT22;14054;50.108;8.640;2024-02-21T11:40:57;12.70;99.90
26342;DHT22;14054;50.108;8.640;2024-02-21T11:43:23;12.40;99.90
26342;DHT22;14054;50.108;8.640;2024-02-21T11:45:49;12.40;99.90
26342;DHT22;14054;50.108;8.640;2024-02-21T11:48:14;12.80;99.90
26342;DHT22;14054;50.108;8.640;2024-02-21T11:50:40;13.00;99.90
26342;DHT22;14054;50.108;8.640;2024-02-21T11:53:05;13.00;99.90
26342;DHT22;14054;50.108;8.640;2024-02-21T11:55:31;13.30;99.90
26342;DHT22;14054;50.108;8.640;2024-02-21T11:57:57;12.70;99.90
26342;DHT22;14054;50.108;8.640;2024-02-21T12:00:23;12.20;99.90
26342;DHT22;14054;50.108;8.640;2024-02-21T12:02:50;12.00;99.90
26342;DHT22;14054;50.108;8.640;2024-02-21T12:05:16;11.70;99.90
26342;DHT22;14054;50.108;8.640;2024-02-21T12:07:43;11.60;99.90
26342;DHT22;14054;50.108;8.640;2024-02-21T12:10:13;11.40;99.90
26342;DHT22;14054;50.108;8.640;2024-02-21T12:12:39;11.30;99.90
26342;DHT22;14054;50.108;8.640;2024-02-21T12:15:06;11.10;99.90
26342;DHT22;14054;50.108;8.640;2024-02-21T12:17:39;11.20;99.90
26342;DHT22;14054;50.108;8.640;2024-02-21T12:20:05;11.20;99.90
26342;DHT22;14054;50.108;8.640;2024-02-21T12:22:35;11.30;99.90
26342;DHT22;14054;50.108;8.640;2024-02-21T12:25:15;11.40;99.90
26342;DHT22;14054;50.108;8.640;2024-02-21T12:27:40;11.50;99.90
26342;DHT22;14054;50.108;8.640;2024-02-21T12:30:06;11.60;99.90
26342;DHT22;14054;50.108;8.640;2024-02-21T12:32:35;11.50;99.90
26342;DHT22;14054;50.108;8.640;2024-02-21T12:35:01;11.60;99.90
26342;DHT22;14054;50.108;8.640;2024-02-21T12:37:27;11.70;99.90
26342;DHT22;14054;50.108;8.640;2024-02-21T12:39:52;12.00;99.90
26342;DHT22;14054;50.108;8.640;2024-02-21T12:42:18;12.30;99.90
26342;DHT22;14054;50.108;8.640;2024-02-21T12:44:43;12.40;99.90
26342;DHT22;14054;50.108;8.640;2024-02-21T12:47:09;12.80;99.90
26342;DHT22;14054;50.108;8.640;2024-02-21T12:49:34;12.80;99.90
26342;DHT22;14054;50.108;8.640;2024-02-21T12:52:00;12.40;99.90
26342;DHT22;14054;50.108;8.640;2024-02-21T12:54:25;12.40;99.90
26342;DHT22;14054;50.108;8.640;2024-02-21T12:56:51;12.30;99.90
26342;DHT22;14054;50.108;8.640;2024-02-21T12:59:16;12.00;99.90
26342;DHT22;14054;50.108;8.640;2024-02-21T13:01:42;11.80;99.90
26342;DHT22;14054;50.108;8.640;2024-02-21T13:04:07;11.60;99.90
26342;DHT22;14054;50.108;8.640;2024-02-21T13:06:33;11.70;99.90
26342;DHT22;14054;50.108;8.640;2024-02-21T13:08:58;11.70;99.90
26342;DHT22;14054;50.108;8.640;2024-02-21T13:11:26;11.70;99.90
26342;DHT22;14054;50.108;8.640;2024-02-21T13:13:57;11.60;99.90
26342;DHT22;14054;50.108;8.640;2024-02-21T13:16:22;11.50;99.90
26342;DHT22;14054;50.108;8.640;2024-02-21T13:18:48;11.50;99.90
26342;DHT22;14054;50.108;8.640;2024-02-21T13:21:13;11.40;99.90
26342;DHT22;14054;50.108;8.640;2024-02-21T13:23:40;11.40;99.90
26342;DHT22;14054;50.108;8.640;2024-02-21T13:26:05;11.30;99.90
26342;DHT22;14054;50.108;8.640;2024-02-21T13:28:31;11.30;99.90
26342;DHT22;14054;50.108;8.640;2024-02-21T13:30:56;11.20;99.90
26342;DHT22;14054;50.108;8.640;2024-02-21T13:33:22;11.20;99.90
26342;DHT22;14054;50.108;8.640;2024-02-21T13:35:48;11.20;99.90
26342;DHT22;14054;50.108;8.640;2024-02-21T13:38:13;11.10;99.90
26342;DHT22;14054;50.108;8.640;2024-02-21T13:40:40;11.10;99.90
26342;DHT22;14054;50.108;8.640;2024-02-21T13:43:07;11.20;99.90
26342;DHT22;14054;50.108;8.640;2024-02-21T13:45:33;11.30;99.90
26342;DHT22;14054;50.108;8.640;2024-02-21T13:47:58;11.50;99.90
26342;DHT22;14054;50.108;8.640;2024-02-21T13:50:29;11.70;99.90
26342;DHT22;14054;50.108;8.640;2024-02-21T13:52:55;11.70;99.90
26342;DHT22;14054;50.108;8.640;2024-02-21T13:55:21;11.60;99.90
26342;DHT22;14054;50.108;8.640;2024-02-21T13:57:55;11.90;99.90
26342;DHT22;14054;50.108;8.640;2024-02-21T14:00:21;12.30;99.90
26342;DHT22;14054;50.108;8.640;2024-02-21T14:02:46;12.40;99.90
26342;DHT22;14054;50.108;8.640;2024-02-21T14:05:12;13.00;99.90
26342;DHT22;14054;50.108;8.640;2024-02-21T14:07:38;13.30;99.90
26342;DHT22;14054;50.108;8.640;2024-02-21T14:10:04;13.50;99.90
26342;DHT22;14054;50.108;8.640;2024-02-21T14:12:30;13.60;99.90
26342;DHT22;14054;50.108;8.640;2024-02-21T14:14:57;13.50;99.90
26342;DHT22;14054;50.108;8.640;2024-02-21T14:17:23;13.30;99.90
26342;DHT22;14054;50.108;8.640;2024-02-21T14:19:50;13.00;99.90
26342;DHT22;14054;50.108;8.640;2024-02-21T14:22:16;12.60;99.90
26342;DHT22;14054;50.108;8.640;2024-02-21T14:24:42;12.60;99.90
26342;DHT22;14054;50.108;8.640;2024-02-21T14:27:07;12.30;99.90
26342;DHT22;14054;50.108;8.640;2024-02-21T14:29:34;12.30;99.90
26342;DHT22;14054;50.108;8.640;2024-02-21T14:31:59;12.20;99.90
26342;DHT22;14054;50.108;8.640;2024-02-21T14:34:26;12.10;99.90
26342;DHT22;14054;50.108;8.640;2024-02-21T14:36:52;12.00;99.90
26342;DHT22;14054;50.108;8.640;2024-02-21T14:39:17;12.00;99.90
26342;DHT22;14054;50.108;8.640;2024-02-21T14:41:43;11.90;99.90
26342;DHT22;14054;50.108;8.640;2024-02-21T14:44:08;11.80;99.90
26342;DHT22;14054;50.108;8.640;2024-02-21T14:46:35;11.70;99.90
26342;DHT22;14054;50.108;8.640;2024-02-21T14:49:01;11.70;99.90
26342;DHT22;14054;50.108;8.640;2024-02-21T14:51:26;11.70;99.90
26342;DHT22;14054;50.108;8.640;2024-02-21T14:53:52;11.40;99.90
26342;DHT22;14054;50.108;8.640;2024-02-21T14:56:17;11.30;99.90
26342;DHT22;14054;50.108;8.640;2024-02-21T14:58:43;11.40;99.90
26342;DHT22;14054;50.108;8.640;2024-02-21T15:01:08;11.40;99.90
26342;DHT22;14054;50.108;8.640;2024-02-21T15:03:34;11.30;99.90
26342;DHT22;14054;50.108;8.640;2024-02-21T15:06:01;11.30;99.90
26342;DHT22;14054;50.108;8.640;2024-02-21T15:08:27;11.30;99.90
26342;DHT22;14054;50.108;8.640;2024-02-21T15:10:53;11.30;99.90
26342;DHT22;14054;50.108;8.640;2024-02-21T15:13:19;11.30;99.90
26342;DHT22;14054;50.108;8.640;2024-02-21T15:15:45;11.20;99.90
26342;DHT22;14054;50.108;8.640;2024-02-21T15:18:16;11.20;99.90
26342;DHT22;14054;50.108;8.640;2024-02-21T15:20:41;11.20;99.90
26342;DHT22;14054;50.108;8.640;2024-02-21T15:23:07;11.20;99.90
26342;DHT22;14054;50.108;8.640;2024-02-21T15:25:32;11.10;99.90
26342;DHT22;14054;50.108;8.640;2024-02-21T15:27:59;11.10;99.90
26342;DHT22;14054;50.108;8.640;2024-02-21T15:30:24;11.10;99.90
26342;DHT22;14054;50.108;8.640;2024-02-21T15:32:50;11.10;99.90
26342;DHT22;14054;50.108;8.640;2024-02-21T15:35:15;11.00;99.90
26342;DHT22;14054;50.108;8.640;2024-02-21T15:37:41;10.80;99.90
26342;DHT22;14054;50.108;8.640;2024-02-21T15:40:07;10.80;99.90